NOZ1P2 EFOU-ENBR
Flight info
| Callsign | NOZ1P2 |
|---|---|
| Flight time | N/A |
| Altitude | 38000 |
| Route | XEVAP DCT LUNUR |
| Aircraft | B738/M-SDE2E3FGHIRWXY/LB1 |
Departure
| Time | 2026-05-06 19:42 |
|---|---|
| Airport | Oulu Airport (EFOU) |
Arrival
| Time | N/A |
|---|---|
| Airport | Bergen Airport, Flesland (ENBR) |
| Time | Latitude | Longitude | Altitude | Speed | Heading |
|---|---|---|---|---|---|
| 2026-05-06 19:27 | 64.92845 | 25.37145 | 50 ft | 0 kts | 61° |
| 2026-05-06 19:32 | 64.92843 | 25.37133 | 48 ft | 4 kts | 61° |
| 2026-05-06 19:32 | 64.92830 | 25.37078 | 48 ft | 3 kts | 60° |
| 2026-05-06 19:33 | 64.92820 | 25.37034 | 46 ft | 4 kts | 74° |
| 2026-05-06 19:33 | 64.92818 | 25.36973 | 47 ft | 4 kts | 104° |
| 2026-05-06 19:33 | 64.92826 | 25.36929 | 47 ft | 0 kts | 121° |
| 2026-05-06 19:39 | 64.92824 | 25.36936 | 47 ft | 4 kts | 121° |
| 2026-05-06 19:39 | 64.92789 | 25.37074 | 48 ft | 12 kts | 121° |
| 2026-05-06 19:39 | 64.92746 | 25.37242 | 48 ft | 12 kts | 121° |
| 2026-05-06 19:40 | 64.92704 | 25.37407 | 49 ft | 12 kts | 121° |
| 2026-05-06 19:40 | 64.92659 | 25.37583 | 47 ft | 15 kts | 121° |
| 2026-05-06 19:40 | 64.92604 | 25.37804 | 47 ft | 14 kts | 120° |
| 2026-05-06 19:40 | 64.92535 | 25.37931 | 49 ft | 11 kts | 178° |
| 2026-05-06 19:41 | 64.92499 | 25.37894 | 47 ft | 4 kts | 226° |
| 2026-05-06 19:41 | 64.92464 | 25.37763 | 44 ft | 14 kts | 231° |
| 2026-05-06 19:41 | 64.92445 | 25.37702 | 44 ft | 1 kts | 258° |
| 2026-05-06 19:41 | 64.92454 | 25.37627 | 43 ft | 11 kts | 297° |
| 2026-05-06 19:42 | 64.92604 | 25.37041 | 47 ft | 79 kts | 301° |
| 2026-05-06 19:42 | 64.93011 | 25.35442 | 53 ft | 145 kts | 300° |
| 2026-05-06 19:42 | 64.93566 | 25.33190 | 539 ft | 161 kts | 299° |
| 2026-05-06 19:42 | 64.94130 | 25.30968 | 1520 ft | 157 kts | 300° |
| 2026-05-06 19:43 | 64.94706 | 25.28717 | 2161 ft | 171 kts | 300° |
| 2026-05-06 19:43 | 64.95363 | 25.26147 | 2602 ft | 193 kts | 300° |
| 2026-05-06 19:43 | 64.95839 | 25.24286 | 3031 ft | 197 kts | 300° |
| 2026-05-06 19:43 | 64.96445 | 25.21340 | 3588 ft | 205 kts | 279° |
| 2026-05-06 19:44 | 64.96050 | 25.16755 | 3957 ft | 237 kts | 247° |
| 2026-05-06 19:44 | 64.95379 | 25.13040 | 4514 ft | 251 kts | 248° |
| 2026-05-06 19:44 | 64.94753 | 25.09143 | 5320 ft | 256 kts | 251° |
| 2026-05-06 19:44 | 64.94198 | 25.05118 | 6207 ft | 259 kts | 252° |
| 2026-05-06 19:45 | 64.93653 | 25.01042 | 7025 ft | 262 kts | 253° |
| 2026-05-06 19:45 | 64.93280 | 24.98265 | 7582 ft | 264 kts | 252° |
| 2026-05-06 19:45 | 64.92716 | 24.94123 | 8435 ft | 267 kts | 252° |
| 2026-05-06 19:45 | 64.92140 | 24.89946 | 9252 ft | 270 kts | 252° |
| 2026-05-06 19:46 | 64.91550 | 24.85714 | 10060 ft | 273 kts | 252° |
| 2026-05-06 19:46 | 64.90937 | 24.81345 | 10443 ft | 292 kts | 252° |
| 2026-05-06 19:46 | 64.90269 | 24.76622 | 10641 ft | 315 kts | 252° |
| 2026-05-06 19:46 | 64.89554 | 24.71598 | 11053 ft | 329 kts | 252° |
| 2026-05-06 19:47 | 64.88818 | 24.66448 | 11738 ft | 334 kts | 251° |
| 2026-05-06 19:47 | 64.88072 | 24.61235 | 12527 ft | 337 kts | 251° |
| 2026-05-06 19:47 | 64.87318 | 24.55982 | 13329 ft | 341 kts | 251° |
| 2026-05-06 19:47 | 64.86553 | 24.50666 | 14079 ft | 345 kts | 251° |
| 2026-05-06 19:48 | 64.85778 | 24.45295 | 14830 ft | 348 kts | 251° |
| 2026-05-06 19:48 | 64.84993 | 24.39872 | 15621 ft | 351 kts | 251° |
| 2026-05-06 19:48 | 64.84199 | 24.34422 | 16395 ft | 354 kts | 251° |
| 2026-05-06 19:48 | 64.83401 | 24.28915 | 17149 ft | 358 kts | 251° |
| 2026-05-06 19:49 | 64.82631 | 24.23317 | 17902 ft | 362 kts | 252° |
| 2026-05-06 19:49 | 64.81875 | 24.17664 | 18607 ft | 365 kts | 252° |
| 2026-05-06 19:49 | 64.81118 | 24.11952 | 19289 ft | 367 kts | 252° |
| 2026-05-06 19:49 | 64.80357 | 24.06224 | 19988 ft | 369 kts | 252° |
| 2026-05-06 19:50 | 64.79588 | 24.00465 | 20673 ft | 371 kts | 252° |
| 2026-05-06 19:50 | 64.78809 | 23.94676 | 21325 ft | 373 kts | 252° |
| 2026-05-06 19:50 | 64.78022 | 23.88860 | 21977 ft | 376 kts | 252° |
| 2026-05-06 19:50 | 64.77225 | 23.83005 | 22610 ft | 378 kts | 252° |
| 2026-05-06 19:51 | 64.76422 | 23.77126 | 23240 ft | 381 kts | 252° |
| 2026-05-06 19:51 | 64.75608 | 23.71203 | 23783 ft | 383 kts | 252° |
| 2026-05-06 19:51 | 64.74789 | 23.65253 | 24280 ft | 385 kts | 252° |
| 2026-05-06 19:51 | 64.73962 | 23.59279 | 24798 ft | 386 kts | 252° |
| 2026-05-06 19:52 | 64.73134 | 23.53311 | 25310 ft | 387 kts | 252° |
| 2026-05-06 19:52 | 64.72298 | 23.47308 | 25793 ft | 389 kts | 252° |
| 2026-05-06 19:52 | 64.71457 | 23.41287 | 26251 ft | 390 kts | 252° |
| 2026-05-06 19:52 | 64.70606 | 23.35224 | 26704 ft | 392 kts | 252° |
| 2026-05-06 19:53 | 64.69752 | 23.29155 | 27150 ft | 394 kts | 252° |
| 2026-05-06 19:53 | 64.68891 | 23.23063 | 27587 ft | 396 kts | 252° |
| 2026-05-06 19:53 | 64.68024 | 23.16945 | 28002 ft | 398 kts | 252° |
| 2026-05-06 19:53 | 64.67161 | 23.10883 | 28403 ft | 399 kts | 252° |
| 2026-05-06 19:54 | 64.66280 | 23.04712 | 28810 ft | 401 kts | 251° |
| 2026-05-06 19:54 | 64.65392 | 22.98518 | 29192 ft | 403 kts | 251° |
| 2026-05-06 19:54 | 64.64499 | 22.92306 | 29563 ft | 405 kts | 251° |
| 2026-05-06 19:54 | 64.63597 | 22.86060 | 29926 ft | 407 kts | 251° |
| 2026-05-06 19:55 | 64.62692 | 22.79808 | 30299 ft | 406 kts | 251° |
| 2026-05-06 19:55 | 64.61787 | 22.73583 | 30688 ft | 405 kts | 251° |
| 2026-05-06 19:55 | 64.60879 | 22.67357 | 31000 ft | 406 kts | 251° |
| 2026-05-06 19:55 | 64.59965 | 22.61113 | 31298 ft | 407 kts | 251° |
| 2026-05-06 19:56 | 64.59048 | 22.54872 | 31626 ft | 407 kts | 251° |
| 2026-05-06 19:56 | 64.58129 | 22.48641 | 31969 ft | 407 kts | 251° |
| 2026-05-06 19:56 | 64.57205 | 22.42394 | 32296 ft | 408 kts | 251° |
| 2026-05-06 19:56 | 64.56278 | 22.36156 | 32597 ft | 408 kts | 251° |
| 2026-05-06 19:57 | 64.55348 | 22.29916 | 32923 ft | 409 kts | 251° |
| 2026-05-06 19:57 | 64.54415 | 22.23673 | 33236 ft | 409 kts | 251° |
| 2026-05-06 19:57 | 64.53478 | 22.17427 | 33532 ft | 410 kts | 251° |
| 2026-05-06 19:57 | 64.52536 | 22.11174 | 33856 ft | 410 kts | 251° |
| 2026-05-06 19:58 | 64.51593 | 22.04934 | 34117 ft | 410 kts | 251° |
| 2026-05-06 19:58 | 64.50645 | 21.98687 | 34344 ft | 411 kts | 251° |
| 2026-05-06 19:58 | 64.49693 | 21.92426 | 34552 ft | 412 kts | 251° |
| 2026-05-06 19:58 | 64.48735 | 21.86152 | 34791 ft | 412 kts | 251° |
| 2026-05-06 19:59 | 64.47774 | 21.79881 | 35031 ft | 413 kts | 251° |
| 2026-05-06 19:59 | 64.46809 | 21.73607 | 35237 ft | 414 kts | 251° |
| 2026-05-06 19:59 | 64.45837 | 21.67311 | 35451 ft | 415 kts | 251° |
| 2026-05-06 19:59 | 64.44877 | 21.61109 | 35684 ft | 415 kts | 250° |
| 2026-05-06 20:00 | 64.43900 | 21.54820 | 35900 ft | 416 kts | 250° |
| 2026-05-06 20:00 | 64.42904 | 21.48432 | 36101 ft | 417 kts | 250° |
| 2026-05-06 20:00 | 64.41915 | 21.42116 | 36315 ft | 417 kts | 250° |
| 2026-05-06 20:00 | 64.40924 | 21.35804 | 36535 ft | 418 kts | 250° |
| 2026-05-06 20:01 | 64.39931 | 21.29498 | 36740 ft | 418 kts | 250° |
| 2026-05-06 20:01 | 64.38931 | 21.23177 | 36939 ft | 419 kts | 250° |
| 2026-05-06 20:01 | 64.37928 | 21.16853 | 37137 ft | 419 kts | 250° |
| 2026-05-06 20:01 | 64.36921 | 21.10524 | 37333 ft | 420 kts | 250° |
| 2026-05-06 20:02 | 64.35908 | 21.04187 | 37535 ft | 420 kts | 250° |
| 2026-05-06 20:02 | 64.34908 | 20.97948 | 37741 ft | 420 kts | 250° |
| 2026-05-06 20:02 | 64.33877 | 20.91532 | 37925 ft | 421 kts | 250° |
| 2026-05-06 20:02 | 64.32864 | 20.85258 | 37921 ft | 424 kts | 250° |
| 2026-05-06 20:03 | 64.30797 | 20.72518 | 37933 ft | 422 kts | 250° |
| 2026-05-06 20:03 | 64.28738 | 20.59909 | 37937 ft | 419 kts | 250° |
| 2026-05-06 20:04 | 64.26683 | 20.47414 | 37948 ft | 416 kts | 250° |
| 2026-05-06 20:04 | 64.24628 | 20.34997 | 37946 ft | 415 kts | 250° |
| 2026-05-06 20:05 | 64.22567 | 20.22625 | 37954 ft | 414 kts | 249° |
| 2026-05-06 20:05 | 64.20496 | 20.10273 | 37956 ft | 415 kts | 249° |
| 2026-05-06 20:06 | 64.18407 | 19.97897 | 37958 ft | 416 kts | 249° |
| 2026-05-06 20:06 | 64.16299 | 19.85491 | 37960 ft | 418 kts | 249° |
| 2026-05-06 20:07 | 64.14172 | 19.73058 | 37956 ft | 420 kts | 249° |
| 2026-05-06 20:07 | 64.12028 | 19.60598 | 37957 ft | 421 kts | 249° |
| 2026-05-06 20:08 | 64.09863 | 19.48104 | 37962 ft | 422 kts | 249° |
| 2026-05-06 20:08 | 64.07687 | 19.35625 | 37961 ft | 423 kts | 249° |
| 2026-05-06 20:09 | 64.05500 | 19.23165 | 37964 ft | 422 kts | 248° |
| 2026-05-06 20:09 | 64.03305 | 19.10740 | 37960 ft | 421 kts | 248° |
| 2026-05-06 20:10 | 64.01120 | 18.98450 | 37960 ft | 420 kts | 248° |
| 2026-05-06 20:10 | 63.98920 | 18.86150 | 37963 ft | 418 kts | 248° |
| 2026-05-06 20:11 | 63.96717 | 18.73910 | 37962 ft | 417 kts | 248° |
| 2026-05-06 20:11 | 63.94507 | 18.61714 | 37968 ft | 416 kts | 248° |
| 2026-05-06 20:12 | 63.92294 | 18.49572 | 37965 ft | 415 kts | 248° |
| 2026-05-06 20:12 | 63.90077 | 18.37485 | 37970 ft | 414 kts | 248° |
| 2026-05-06 20:13 | 63.87854 | 18.25434 | 37966 ft | 414 kts | 247° |
| 2026-05-06 20:13 | 63.85623 | 18.13416 | 37964 ft | 413 kts | 247° |
| 2026-05-06 20:14 | 63.83380 | 18.01408 | 37966 ft | 414 kts | 247° |
| 2026-05-06 20:14 | 63.81127 | 17.89418 | 37968 ft | 414 kts | 247° |
| 2026-05-06 20:15 | 63.78859 | 17.77419 | 37969 ft | 415 kts | 247° |
| 2026-05-06 20:15 | 63.76577 | 17.65421 | 37967 ft | 416 kts | 246° |
| 2026-05-06 20:16 | 63.74281 | 17.53415 | 37970 ft | 417 kts | 246° |
| 2026-05-06 20:16 | 63.71970 | 17.41409 | 37972 ft | 417 kts | 246° |
| 2026-05-06 20:17 | 63.69646 | 17.29403 | 37967 ft | 418 kts | 246° |
| 2026-05-06 20:17 | 63.67308 | 17.17401 | 37964 ft | 418 kts | 246° |
| 2026-05-06 20:18 | 63.64958 | 17.05406 | 37971 ft | 419 kts | 246° |
| 2026-05-06 20:18 | 63.62598 | 16.93427 | 37964 ft | 419 kts | 245° |
| 2026-05-06 20:19 | 63.60223 | 16.81447 | 37960 ft | 419 kts | 245° |
| 2026-05-06 20:19 | 63.57841 | 16.69501 | 37960 ft | 419 kts | 245° |
| 2026-05-06 20:20 | 63.55449 | 16.57572 | 37960 ft | 419 kts | 245° |
| 2026-05-06 20:20 | 63.53048 | 16.45670 | 37967 ft | 419 kts | 245° |
| 2026-05-06 20:21 | 63.50637 | 16.33786 | 37968 ft | 419 kts | 245° |
| 2026-05-06 20:21 | 63.48215 | 16.21920 | 37969 ft | 419 kts | 245° |
| 2026-05-06 20:22 | 63.45798 | 16.10144 | 37962 ft | 419 kts | 245° |
| 2026-05-06 20:22 | 63.43352 | 15.98296 | 37962 ft | 420 kts | 245° |
| 2026-05-06 20:23 | 63.40896 | 15.86461 | 37964 ft | 420 kts | 244° |
| 2026-05-06 20:23 | 63.38425 | 15.74629 | 37966 ft | 421 kts | 244° |
| 2026-05-06 20:24 | 63.35942 | 15.62801 | 37958 ft | 422 kts | 244° |
| 2026-05-06 20:24 | 63.33445 | 15.50976 | 37960 ft | 422 kts | 244° |
| 2026-05-06 20:25 | 63.30934 | 15.39151 | 37962 ft | 423 kts | 244° |
| 2026-05-06 20:25 | 63.28835 | 15.29318 | 37955 ft | 424 kts | 244° |
| 2026-05-06 20:26 | 63.25869 | 15.15499 | 37950 ft | 424 kts | 244° |
| 2026-05-06 20:26 | 63.23317 | 15.03685 | 37938 ft | 425 kts | 244° |
| 2026-05-06 20:27 | 63.21188 | 14.93874 | 37935 ft | 425 kts | 244° |
| 2026-05-06 20:27 | 63.18615 | 14.82080 | 37922 ft | 425 kts | 244° |
| 2026-05-06 20:28 | 63.16033 | 14.70314 | 37913 ft | 425 kts | 244° |
| 2026-05-06 20:28 | 63.13439 | 14.58557 | 37937 ft | 425 kts | 244° |
| 2026-05-06 20:29 | 63.10838 | 14.46833 | 37942 ft | 425 kts | 244° |
| 2026-05-06 20:29 | 63.08227 | 14.35128 | 37944 ft | 425 kts | 244° |
| 2026-05-06 20:30 | 63.04297 | 14.17631 | 37947 ft | 424 kts | 244° |
| 2026-05-06 20:31 | 63.01666 | 14.05994 | 37958 ft | 424 kts | 243° |
| 2026-05-06 20:31 | 62.99030 | 13.94399 | 37965 ft | 423 kts | 243° |
| 2026-05-06 20:32 | 62.96402 | 13.82901 | 37972 ft | 423 kts | 243° |
| 2026-05-06 20:32 | 62.93747 | 13.71351 | 37965 ft | 423 kts | 243° |
| 2026-05-06 20:33 | 62.91087 | 13.59837 | 37964 ft | 423 kts | 243° |
| 2026-05-06 20:33 | 62.88417 | 13.48342 | 37969 ft | 423 kts | 243° |
| 2026-05-06 20:34 | 62.85738 | 13.36871 | 37968 ft | 423 kts | 243° |
| 2026-05-06 20:34 | 62.83049 | 13.25419 | 37968 ft | 423 kts | 243° |
| 2026-05-06 20:35 | 62.80352 | 13.13989 | 37970 ft | 423 kts | 243° |
| 2026-05-06 20:35 | 62.77645 | 13.02582 | 37968 ft | 423 kts | 243° |
| 2026-05-06 20:36 | 62.74933 | 12.91208 | 37975 ft | 422 kts | 243° |
| 2026-05-06 20:36 | 62.72212 | 12.79859 | 37971 ft | 422 kts | 243° |
| 2026-05-06 20:37 | 62.69479 | 12.68519 | 37977 ft | 423 kts | 242° |
| 2026-05-06 20:37 | 62.66736 | 12.57193 | 37973 ft | 423 kts | 242° |
| 2026-05-06 20:38 | 62.63985 | 12.45899 | 37979 ft | 423 kts | 242° |
| 2026-05-06 20:38 | 62.61241 | 12.34688 | 37971 ft | 423 kts | 242° |
| 2026-05-06 20:39 | 62.58472 | 12.23430 | 37981 ft | 423 kts | 242° |
| 2026-05-06 20:39 | 62.55689 | 12.12178 | 37975 ft | 423 kts | 242° |
| 2026-05-06 20:40 | 62.52936 | 12.01099 | 37976 ft | 423 kts | 242° |
| 2026-05-06 20:40 | 62.50135 | 11.89888 | 37966 ft | 424 kts | 242° |
| 2026-05-06 20:41 | 62.47323 | 11.78686 | 37959 ft | 424 kts | 242° |
| 2026-05-06 20:41 | 62.44501 | 11.67504 | 37953 ft | 424 kts | 242° |
| 2026-05-06 20:42 | 62.41668 | 11.56333 | 37953 ft | 424 kts | 242° |
| 2026-05-06 20:42 | 62.38825 | 11.45182 | 37963 ft | 424 kts | 242° |
| 2026-05-06 20:43 | 62.35976 | 11.34062 | 37961 ft | 424 kts | 242° |
| 2026-05-06 20:43 | 62.33114 | 11.22947 | 37962 ft | 425 kts | 241° |
| 2026-05-06 20:44 | 62.30243 | 11.11852 | 37971 ft | 424 kts | 241° |
| 2026-05-06 20:44 | 62.27360 | 11.00765 | 37975 ft | 425 kts | 241° |
| 2026-05-06 20:45 | 62.24471 | 10.89709 | 37975 ft | 425 kts | 241° |
| 2026-05-06 20:45 | 62.21591 | 10.78746 | 37981 ft | 425 kts | 241° |
| 2026-05-06 20:46 | 62.18686 | 10.67737 | 37974 ft | 425 kts | 241° |
| 2026-05-06 20:46 | 62.15768 | 10.56737 | 37972 ft | 425 kts | 241° |
| 2026-05-06 20:47 | 62.12844 | 10.45766 | 37977 ft | 425 kts | 241° |
| 2026-05-06 20:47 | 62.09906 | 10.34801 | 37982 ft | 425 kts | 241° |
| 2026-05-06 20:48 | 62.06966 | 10.23878 | 37990 ft | 424 kts | 241° |
| 2026-05-06 20:48 | 62.04017 | 10.12974 | 37984 ft | 425 kts | 241° |
| 2026-05-06 20:49 | 62.01060 | 10.02093 | 37988 ft | 425 kts | 241° |
| 2026-05-06 20:49 | 61.98091 | 9.91222 | 37988 ft | 425 kts | 240° |
| 2026-05-06 20:50 | 61.95113 | 9.80372 | 37993 ft | 425 kts | 240° |
| 2026-05-06 20:50 | 61.92128 | 9.69546 | 37991 ft | 425 kts | 240° |
| 2026-05-06 20:51 | 61.89132 | 9.58735 | 37999 ft | 425 kts | 240° |
| 2026-05-06 20:51 | 61.86129 | 9.47946 | 38000 ft | 425 kts | 240° |
| 2026-05-06 20:52 | 61.83116 | 9.37177 | 37993 ft | 425 kts | 240° |
| 2026-05-06 20:52 | 61.80097 | 9.26435 | 38002 ft | 425 kts | 240° |
| 2026-05-06 20:53 | 61.77070 | 9.15715 | 38003 ft | 424 kts | 240° |
| 2026-05-06 20:53 | 61.74039 | 9.05033 | 37999 ft | 424 kts | 240° |
| 2026-05-06 20:54 | 61.71004 | 8.94388 | 37995 ft | 423 kts | 240° |
| 2026-05-06 20:54 | 61.67965 | 8.83778 | 38005 ft | 423 kts | 240° |
| 2026-05-06 20:55 | 61.64939 | 8.73258 | 37998 ft | 423 kts | 240° |
| 2026-05-06 20:55 | 61.63402 | 8.67936 | 37533 ft | 429 kts | 240° |
| 2026-05-06 20:55 | 61.61860 | 8.62605 | 37025 ft | 426 kts | 240° |